Time;durP1;ratioP1;P1;durP2;ratioP2;P2;SDS_P1;SDS_P2;PMS_P1;PMS_P2;Temp;Humidity;BMP_temperature;BMP_pressure;BME280_temperature;BME280_humidity;BME280_pressure;Samples;Min_cycle;Max_cycle;Signal;HPM_P1;HPM_P2
2023/06/04 00:02:00;;;;;;;8.00;4.43;;;10.10;72.70;;;;;;6187503;23;20027;-89
2023/06/04 00:04:26;;;;;;;12.80;4.90;;;10.00;72.70;;;;;;6210824;23;20469;-89
2023/06/04 00:06:54;;;;;;;13.07;5.23;;;10.00;72.70;;;;;;6180879;23;20025;-89
2023/06/04 00:09:20;;;;;;;15.80;6.07;;;10.00;72.80;;;;;;6185395;23;20024;-91
2023/06/04 00:11:46;;;;;;;24.17;12.23;;;10.00;72.80;;;;;;6212216;23;20023;-89
2023/06/04 00:14:13;;;;;;;29.10;14.60;;;10.00;72.90;;;;;;6211015;23;20364;-89
2023/06/04 00:16:40;;;;;;;22.50;11.83;;;9.90;72.90;;;;;;6182278;23;20008;-90
2023/06/04 00:19:06;;;;;;;17.43;9.23;;;9.90;73.10;;;;;;6184547;23;20351;-89
2023/06/04 00:21:32;;;;;;;18.60;7.00;;;9.90;73.20;;;;;;6187773;23;20016;-89
2023/06/04 00:23:59;;;;;;;15.53;6.07;;;9.90;73.40;;;;;;6185910;23;20031;-90
2023/06/04 00:26:27;;;;;;;21.10;6.00;;;9.80;73.50;;;;;;6184277;23;20028;-93
2023/06/04 00:28:56;;;;;;;14.05;4.82;;;9.80;73.50;;;;;;6206901;23;20150;-89
2023/06/04 00:31:22;;;;;;;12.63;4.93;;;9.80;73.50;;;;;;6212669;23;20040;-89
2023/06/04 00:33:48;;;;;;;13.40;4.35;;;9.80;73.60;;;;;;6186017;23;20075;-90
2023/06/04 00:36:14;;;;;;;11.50;4.50;;;9.80;73.60;;;;;;6210925;23;20023;-91
2023/06/04 00:38:39;;;;;;;12.53;4.80;;;9.80;73.60;;;;;;6207993;23;20052;-90
2023/06/04 00:41:05;;;;;;;10.23;4.60;;;9.80;73.80;;;;;;6212239;23;20029;-90
2023/06/04 00:43:32;;;;;;;16.23;4.73;;;9.80;73.80;;;;;;6185485;23;20027;-89
2023/06/04 00:45:58;;;;;;;16.73;5.47;;;9.80;74.00;;;;;;6187427;23;20100;-89
2023/06/04 00:48:30;;;;;;;16.70;5.63;;;9.80;74.10;;;;;;6179907;23;20074;-89
2023/06/04 00:50:57;;;;;;;13.73;5.27;;;9.80;74.30;;;;;;6212132;23;20021;-89
2023/06/04 00:53:24;;;;;;;14.17;5.60;;;10.00;74.40;;;;;;6185374;23;20364;-89
2023/06/04 00:55:51;;;;;;;15.93;5.50;;;10.00;74.60;;;;;;6212208;23;20024;-90
2023/06/04 00:58:17;;;;;;;15.53;5.50;;;10.00;74.70;;;;;;6203784;23;20024;-90
2023/06/04 01:00:45;;;;;;;19.73;6.07;;;10.00;74.90;;;;;;6212307;23;20024;-89
2023/06/04 01:03:17;;;;;;;16.23;5.53;;;10.00;74.90;;;;;;6210609;23;20094;-91
2023/06/04 01:06:04;;;;;;;18.43;5.83;;;10.00;74.90;;;;;;6187325;23;20032;-89
2023/06/04 01:08:30;;;;;;;14.23;5.67;;;10.00;75.30;;;;;;6178664;23;20035;-89
2023/06/04 01:10:57;;;;;;;17.23;6.00;;;10.00;75.20;;;;;;6187047;23;20024;-89
2023/06/04 01:13:24;;;;;;;16.90;5.90;;;10.10;75.10;;;;;;6186922;23;20024;-89
2023/06/04 01:15:50;;;;;;;16.53;5.63;;;10.00;75.20;;;;;;6188719;23;20443;-89
2023/06/04 01:18:27;;;;;;;11.80;5.80;;;10.10;75.10;;;;;;6180758;23;20074;-89
2023/06/04 01:21:00;;;;;;;16.33;5.50;;;10.10;75.20;;;;;;6189022;23;20468;-91
2023/06/04 01:23:49;;;;;;;17.40;5.33;;;10.00;75.30;;;;;;6188033;23;20447;-89
2023/06/04 01:26:15;;;;;;;16.03;5.83;;;10.00;75.50;;;;;;6187409;23;20020;-91
2023/06/04 01:28:43;;;;;;;11.93;4.83;;;10.00;75.30;;;;;;6182487;23;20021;-89
2023/06/04 01:31:09;;;;;;;14.97;5.73;;;9.80;75.10;;;;;;6188843;23;20058;-89
2023/06/04 01:33:35;;;;;;;15.20;5.70;;;9.80;75.10;;;;;;6187329;23;20021;-89
2023/06/04 01:36:02;;;;;;;19.10;5.33;;;9.70;75.40;;;;;;6214069;23;20024;-90
2023/06/04 01:38:27;;;;;;;11.73;4.77;;;9.70;75.50;;;;;;6183679;23;20027;-90
2023/06/04 01:41:00;;;;;;;6.27;3.47;;;9.60;75.20;;;;;;6238906;23;20020;-90
2023/06/04 01:43:27;;;;;;;7.20;3.23;;;9.50;75.00;;;;;;6187581;23;20100;-90
2023/06/04 01:45:54;;;;;;;8.33;3.33;;;9.40;74.80;;;;;;6189071;23;20502;-89
2023/06/04 01:48:20;;;;;;;10.60;3.70;;;9.40;74.70;;;;;;6180713;23;20054;-89
2023/06/04 01:50:45;;;;;;;11.60;4.80;;;9.20;74.80;;;;;;6213847;23;20336;-89
2023/06/04 01:53:14;;;;;;;15.30;5.23;;;9.20;74.70;;;;;;6186279;23;20017;-90
2023/06/04 01:55:40;;;;;;;14.40;4.80;;;9.20;74.80;;;;;;6188456;23;20098;-89
2023/06/04 01:58:07;;;;;;;11.00;5.17;;;9.20;75.00;;;;;;6205866;23;20459;-90
2023/06/04 02:00:32;;;;;;;12.50;5.00;;;9.20;75.00;;;;;;6184568;23;20028;-89
2023/06/04 02:02:59;;;;;;;16.37;4.90;;;9.20;75.00;;;;;;6157628;23;20092;-89
2023/06/04 02:05:25;;;;;;;12.93;5.20;;;9.10;75.10;;;;;;6133527;23;20017;-89
2023/06/04 02:07:51;;;;;;;13.23;5.00;;;9.00;75.00;;;;;;6150965;23;20399;-90
2023/06/04 02:10:18;;;;;;;14.97;4.80;;;9.00;74.90;;;;;;6184483;23;20013;-86
2023/06/04 02:12:59;;;;;;;10.47;4.90;;;9.00;74.90;;;;;;6183128;23;20032;-84
2023/06/04 02:15:26;;;;;;;12.00;5.27;;;9.00;74.80;;;;;;6160573;23;20024;-85
2023/06/04 02:18:02;;;;;;;13.87;5.37;;;9.00;74.80;;;;;;6183279;23;20088;-86
2023/06/04 02:20:28;;;;;;;12.57;5.40;;;9.00;74.80;;;;;;6136505;23;20024;-85
2023/06/04 02:22:57;;;;;;;11.93;5.30;;;9.00;74.70;;;;;;6134360;23;20092;-85
2023/06/04 02:25:23;;;;;;;11.93;5.30;;;9.00;74.70;;;;;;6160936;23;20021;-86
2023/06/04 02:27:49;;;;;;;11.40;5.37;;;9.00;74.70;;;;;;6133952;23;20025;-85
2023/06/04 02:30:16;;;;;;;13.30;5.70;;;9.00;74.70;;;;;;6160981;23;20024;-85
2023/06/04 02:32:44;;;;;;;12.13;5.00;;;9.00;74.70;;;;;;6134623;23;20440;-85
2023/06/04 02:35:10;;;;;;;17.47;6.23;;;9.00;74.70;;;;;;6138522;23;20021;-86
2023/06/04 02:37:36;;;;;;;16.20;5.83;;;9.00;74.80;;;;;;6186158;23;20094;-85
2023/06/04 02:40:02;;;;;;;12.80;5.90;;;9.00;74.80;;;;;;6161429;23;20432;-85
2023/06/04 02:42:29;;;;;;;18.23;5.70;;;9.00;75.00;;;;;;6134328;23;20090;-85
2023/06/04 02:44:55;;;;;;;17.60;6.80;;;9.00;75.00;;;;;;6160216;23;20468;-85
2023/06/04 02:47:21;;;;;;;14.67;6.03;;;9.00;75.00;;;;;;6134249;22;20072;-87
2023/06/04 02:49:47;;;;;;;14.60;6.20;;;9.00;75.00;;;;;;6161489;23;20147;-88
2023/06/04 02:52:12;;;;;;;14.93;6.63;;;9.00;75.00;;;;;;6158474;22;20096;-87
2023/06/04 02:54:38;;;;;;;12.40;6.53;;;9.00;75.00;;;;;;6161340;23;20075;-87
2023/06/04 02:57:04;;;;;;;12.70;6.67;;;8.90;75.10;;;;;;6183953;22;20009;-87
2023/06/04 02:59:30;;;;;;;12.40;6.10;;;8.90;75.10;;;;;;6161225;23;20020;-85
2023/06/04 03:01:56;;;;;;;14.80;6.40;;;8.90;75.10;;;;;;6190068;23;20096;-86
2023/06/04 03:04:22;;;;;;;12.43;6.10;;;8.90;75.10;;;;;;6213991;23;20021;-87
2023/06/04 03:06:48;;;;;;;11.03;5.83;;;8.90;75.10;;;;;;6214307;23;20034;-88
2023/06/04 03:09:14;;;;;;;10.10;6.23;;;8.90;75.10;;;;;;6188589;23;20016;-88
2023/06/04 03:11:40;;;;;;;9.73;5.93;;;8.90;75.10;;;;;;6189649;23;20335;-86
2023/06/04 03:14:05;;;;;;;13.97;7.23;;;8.90;75.10;;;;;;6188580;23;20028;-86
2023/06/04 03:16:31;;;;;;;15.83;6.97;;;8.80;75.10;;;;;;6189981;23;20047;-88
2023/06/04 03:18:57;;;;;;;14.07;7.27;;;8.80;75.10;;;;;;6188494;23;20095;-86
2023/06/04 03:21:24;;;;;;;12.57;6.77;;;8.80;75.10;;;;;;6190329;23;20095;-86
2023/06/04 03:23:50;;;;;;;13.20;6.70;;;8.80;75.10;;;;;;6213554;23;20048;-87
2023/06/04 03:26:16;;;;;;;12.27;6.80;;;8.80;75.10;;;;;;6190206;23;20020;-87
2023/06/04 03:28:42;;;;;;;9.00;6.10;;;8.80;75.20;;;;;;6188110;23;20019;-87
2023/06/04 03:31:08;;;;;;;9.53;6.27;;;8.80;75.30;;;;;;6189784;23;20012;-87
2023/06/04 03:33:34;;;;;;;9.07;5.97;;;8.80;75.30;;;;;;6213497;23;20017;-87
2023/06/04 03:36:00;;;;;;;8.93;5.67;;;8.70;75.30;;;;;;6189365;23;20099;-87
2023/06/04 03:38:26;;;;;;;10.07;4.83;;;8.70;75.30;;;;;;6189711;23;20023;-87
2023/06/04 03:40:54;;;;;;;7.90;5.40;;;8.70;75.30;;;;;;6214889;23;20021;-87
2023/06/04 03:43:21;;;;;;;9.40;5.00;;;8.60;75.30;;;;;;6188622;23;20024;-86
2023/06/04 03:45:47;;;;;;;8.03;4.73;;;8.60;75.40;;;;;;6189669;23;20016;-87
2023/06/04 03:48:13;;;;;;;8.83;5.27;;;8.60;75.50;;;;;;6187066;23;20399;-87
2023/06/04 03:50:38;;;;;;;6.93;4.97;;;8.60;75.60;;;;;;6189816;23;20048;-87
2023/06/04 03:53:07;;;;;;;7.27;5.10;;;8.60;75.50;;;;;;6188034;23;20024;-87
2023/06/04 03:55:33;;;;;;;9.40;5.37;;;8.60;75.50;;;;;;6190458;23;20091;-87
2023/06/04 03:57:59;;;;;;;11.27;5.97;;;8.60;75.60;;;;;;6187292;23;20036;-87
2023/06/04 04:00:26;;;;;;;11.30;6.30;;;8.60;75.80;;;;;;6189606;23;20028;-86
2023/06/04 04:02:51;;;;;;;10.10;6.20;;;8.60;75.80;;;;;;6187703;23;20031;-87
2023/06/04 04:05:17;;;;;;;9.90;6.10;;;8.70;75.90;;;;;;6214792;23;20099;-87
2023/06/04 04:07:43;;;;;;;11.07;7.17;;;8.80;75.90;;;;;;6209772;23;20065;-87
2023/06/04 04:10:09;;;;;;;9.73;6.70;;;8.80;75.90;;;;;;6189329;23;20534;-87
2023/06/04 04:12:35;;;;;;;10.43;7.27;;;8.80;76.00;;;;;;6188444;23;20151;-86
2023/06/04 04:15:02;;;;;;;18.83;9.73;;;8.80;76.00;;;;;;6189457;23;20079;-87
2023/06/04 04:17:27;;;;;;;11.60;8.03;;;8.80;76.30;;;;;;6184606;23;20106;-87
2023/06/04 04:19:53;;;;;;;13.37;8.30;;;8.90;76.30;;;;;;6214544;23;20021;-87
2023/06/04 04:22:20;;;;;;;13.23;8.40;;;8.90;76.20;;;;;;6187779;22;20052;-87
2023/06/04 04:24:46;;;;;;;14.87;8.50;;;9.00;76.40;;;;;;6189362;23;20054;-87
2023/06/04 04:27:12;;;;;;;11.00;8.00;;;9.00;76.40;;;;;;6186886;22;20017;-87
2023/06/04 04:29:38;;;;;;;16.47;8.87;;;9.00;76.40;;;;;;6189412;23;20115;-87
2023/06/04 04:32:10;;;;;;;13.90;8.00;;;9.00;76.50;;;;;;6187235;22;20013;-88
2023/06/04 04:34:38;;;;;;;18.70;9.10;;;9.10;76.60;;;;;;6190374;23;20021;-88
2023/06/04 04:37:08;;;;;;;19.10;8.97;;;9.20;76.70;;;;;;6188550;23;20012;-87
2023/06/04 04:39:35;;;;;;;17.67;10.00;;;9.20;76.80;;;;;;6189243;23;20020;-87
2023/06/04 04:42:02;;;;;;;19.33;10.53;;;9.40;77.00;;;;;;6214430;23;20016;-87
2023/06/04 04:44:28;;;;;;;24.10;10.77;;;9.40;77.10;;;;;;6212933;23;20023;-87
2023/06/04 04:46:54;;;;;;;17.97;10.27;;;9.50;77.30;;;;;;6189189;23;20012;-87
2023/06/04 04:49:20;;;;;;;20.17;11.20;;;9.60;77.20;;;;;;6188654;23;20078;-87
2023/06/04 04:51:46;;;;;;;21.20;11.70;;;9.70;77.30;;;;;;6191393;23;20016;-87
2023/06/04 04:54:12;;;;;;;21.00;11.70;;;9.80;77.30;;;;;;6189654;23;20100;-87
2023/06/04 04:56:37;;;;;;;20.87;12.43;;;9.80;77.30;;;;;;6190485;23;20016;-88
2023/06/04 04:59:04;;;;;;;22.10;12.33;;;10.00;77.40;;;;;;6189043;23;20463;-88
2023/06/04 05:01:30;;;;;;;22.60;12.13;;;10.00;77.50;;;;;;6190718;23;20348;-85
2023/06/04 05:03:56;;;;;;;21.93;12.37;;;10.10;77.60;;;;;;6189492;23;20058;-88
2023/06/04 05:06:21;;;;;;;20.63;11.77;;;10.30;77.80;;;;;;6190754;23;20017;-90
2023/06/04 05:08:48;;;;;;;19.63;11.67;;;10.50;78.00;;;;;;6189261;23;20052;-87
2023/06/04 05:11:13;;;;;;;20.07;10.77;;;10.70;78.20;;;;;;6191392;23;20090;-88
2023/06/04 05:13:41;;;;;;;17.20;9.47;;;10.90;78.20;;;;;;6214928;23;20016;-87
2023/06/04 05:16:07;;;;;;;16.52;9.15;;;11.10;78.00;;;;;;6190812;23;20023;-90
2023/06/04 05:18:34;;;;;;;14.93;8.52;;;11.40;77.90;;;;;;6188447;23;20431;-88
2023/06/04 05:21:02;;;;;;;20.17;8.40;;;11.50;77.80;;;;;;6191812;23;20024;-88
2023/06/04 05:23:29;;;;;;;19.08;8.38;;;11.80;77.70;;;;;;6188319;23;20024;-89
2023/06/04 05:25:56;;;;;;;12.48;7.55;;;11.90;77.30;;;;;;6190895;23;20025;-88
2023/06/04 05:28:24;;;;;;;16.67;7.22;;;12.00;77.10;;;;;;6178190;23;20075;-88
2023/06/04 05:30:51;;;;;;;14.45;7.13;;;12.30;77.10;;;;;;6191129;23;20048;-88
2023/06/04 05:33:18;;;;;;;14.15;6.25;;;12.50;76.80;;;;;;6189378;23;20013;-88
2023/06/04 05:35:51;;;;;;;13.30;6.35;;;12.60;76.50;;;;;;6191273;23;20099;-88
2023/06/04 05:38:25;;;;;;;12.90;5.57;;;12.90;76.40;;;;;;6190767;23;20099;-88
2023/06/04 05:40:52;;;;;;;18.73;5.80;;;13.10;76.00;;;;;;6191913;23;20039;-87
2023/06/04 05:43:18;;;;;;;14.75;5.40;;;13.10;75.80;;;;;;6189297;23;20059;-88
2023/06/04 05:45:44;;;;;;;17.55;5.22;;;13.30;75.90;;;;;;6190713;23;20021;-88
2023/06/04 05:48:10;;;;;;;18.08;4.90;;;13.30;75.60;;;;;;6187620;23;20099;-88
2023/06/04 05:50:36;;;;;;;14.75;4.55;;;13.30;75.50;;;;;;6190445;23;20052;-89
2023/06/04 05:53:01;;;;;;;17.55;4.88;;;13.30;75.10;;;;;;6189042;23;20029;-88
2023/06/04 05:55:29;;;;;;;15.32;4.40;;;13.30;75.00;;;;;;6215747;23;20020;-88
2023/06/04 05:57:55;;;;;;;12.50;4.95;;;13.30;74.80;;;;;;6187563;23;20498;-88
2023/06/04 06:00:21;;;;;;;14.57;4.97;;;13.30;74.90;;;;;;6190052;23;20055;-88
2023/06/04 06:02:50;;;;;;;13.02;4.53;;;13.30;75.00;;;;;;6214401;23;20323;-87
2023/06/04 06:05:17;;;;;;;19.42;5.05;;;13.50;75.00;;;;;;6190513;23;20027;-88
2023/06/04 06:07:44;;;;;;;10.93;4.45;;;13.60;74.50;;;;;;6187925;23;20531;-89
2023/06/04 06:10:10;;;;;;;14.27;4.88;;;13.70;74.40;;;;;;6190850;23;20529;-88
2023/06/04 06:12:36;;;;;;;14.88;4.82;;;13.70;74.20;;;;;;6214589;23;20339;-90
2023/06/04 06:15:02;;;;;;;13.45;4.22;;;13.90;74.30;;;;;;6190450;23;20017;-88
2023/06/04 06:17:29;;;;;;;13.82;4.53;;;13.90;73.80;;;;;;6187785;23;20063;-87
2023/06/04 06:19:55;;;;;;;8.90;4.22;;;13.90;73.70;;;;;;6191348;23;20023;-88
2023/06/04 06:22:24;;;;;;;13.73;4.00;;;13.90;73.90;;;;;;6188561;22;20016;-90
2023/06/04 06:24:50;;;;;;;12.82;3.70;;;14.10;73.80;;;;;;6190861;23;20028;-89
2023/06/04 06:27:17;;;;;;;12.20;3.78;;;14.20;73.40;;;;;;6187647;22;20024;-88
2023/06/04 06:29:43;;;;;;;13.23;3.85;;;14.20;73.00;;;;;;6190539;23;20016;-89
2023/06/04 06:32:12;;;;;;;9.50;3.33;;;14.20;72.40;;;;;;6214327;23;20456;-90
2023/06/04 06:34:38;;;;;;;11.32;3.55;;;14.10;72.20;;;;;;6190502;23;20348;-89
2023/06/04 06:37:06;;;;;;;8.77;3.13;;;14.00;72.30;;;;;;6189351;23;20024;-87
2023/06/04 06:39:32;;;;;;;12.32;3.10;;;14.00;72.20;;;;;;6190460;23;20463;-89
2023/06/04 06:42:00;;;;;;;12.27;3.33;;;14.00;72.20;;;;;;6190555;23;20021;-88
2023/06/04 06:44:26;;;;;;;10.75;3.20;;;14.10;72.30;;;;;;6188975;23;20016;-88
2023/06/04 06:46:52;;;;;;;14.75;3.60;;;14.20;72.20;;;;;;6215043;23;20028;-89
2023/06/04 06:49:18;;;;;;;11.70;3.10;;;14.40;72.00;;;;;;6188434;23;20059;-88
2023/06/04 06:51:46;;;;;;;10.68;3.05;;;14.30;70.90;;;;;;6191000;23;20025;-90
2023/06/04 06:54:15;;;;;;;9.13;3.08;;;14.40;70.90;;;;;;6213304;23;20035;-90
2023/06/04 06:56:41;;;;;;;11.98;3.17;;;14.40;70.70;;;;;;6189546;23;20023;-88
2023/06/04 06:59:07;;;;;;;7.10;3.05;;;14.30;70.40;;;;;;6175615;23;20024;-88
2023/06/04 07:01:33;;;;;;;7.93;2.88;;;14.30;70.20;;;;;;6215180;23;20320;-88
2023/06/04 07:03:59;;;;;;;13.13;3.00;;;14.20;70.00;;;;;;6188346;23;20020;-88
2023/06/04 07:06:25;;;;;;;8.65;2.67;;;14.20;69.90;;;;;;6189524;23;20023;-91
2023/06/04 07:08:52;;;;;;;7.55;2.40;;;14.20;69.90;;;;;;6213107;23;20055;-88
2023/06/04 07:11:18;;;;;;;9.73;2.83;;;14.20;69.60;;;;;;6190616;23;20017;-91
2023/06/04 07:13:43;;;;;;;11.38;3.20;;;14.10;69.60;;;;;;6188784;23;20351;-89
2023/06/04 07:16:09;;;;;;;9.57;3.00;;;14.20;69.90;;;;;;6190477;23;20048;-91
2023/06/04 07:18:55;;;;;;;9.57;2.58;;;14.30;69.70;;;;;;6187931;23;20139;-90
2023/06/04 07:21:24;;;;;;;7.10;3.10;;;14.30;69.50;;;;;;6190109;23;20073;-89
2023/06/04 07:23:50;;;;;;;7.38;2.92;;;14.30;69.40;;;;;;6176590;23;20021;-89
2023/06/04 07:26:17;;;;;;;7.80;2.80;;;14.40;69.60;;;;;;6192197;23;20021;-90
2023/06/04 07:28:44;;;;;;;8.18;3.20;;;14.50;69.40;;;;;;6189458;23;20016;-89
2023/06/04 07:31:10;;;;;;;6.55;1.98;;;14.60;69.40;;;;;;6191626;23;20048;-88
2023/06/04 07:33:43;;;;;;;6.85;2.63;;;14.60;68.80;;;;;;6189281;23;20339;-88
2023/06/04 07:36:16;;;;;;;5.95;2.40;;;14.60;68.60;;;;;;6191082;23;20016;-91
2023/06/04 07:38:42;;;;;;;8.68;2.47;;;14.60;68.20;;;;;;6191548;23;20013;-88
2023/06/04 07:41:11;;;;;;;6.05;2.35;;;14.70;68.20;;;;;;6191389;23;20048;-89
2023/06/04 07:43:37;;;;;;;7.70;2.63;;;14.70;68.00;;;;;;6179826;23;20462;-89
2023/06/04 07:46:09;;;;;;;6.18;2.00;;;14.80;68.20;;;;;;6192034;23;20024;-89
2023/06/04 07:48:35;;;;;;;;;;;14.80;67.60;;;;;;6165599;23;20028;-89
2023/06/04 07:51:05;;;;;;;7.10;2.35;;;14.80;66.70;;;;;;6191311;23;20009;-89
2023/06/04 07:53:50;;;;;;;7.82;2.72;;;14.80;67.70;;;;;;6192067;23;20088;-90
2023/06/04 07:56:16;;;;;;;6.47;2.00;;;14.80;67.20;;;;;;6194839;23;20059;-90
2023/06/04 07:58:45;;;;;;;5.45;1.98;;;14.80;67.60;;;;;;6189626;23;20020;-87
2023/06/04 08:01:11;;;;;;;8.95;2.03;;;14.90;67.60;;;;;;6215750;23;20024;-88
2023/06/04 08:03:37;;;;;;;6.63;2.03;;;15.00;67.50;;;;;;6187868;23;20063;-88
2023/06/04 08:06:10;;;;;;;9.55;2.22;;;15.00;66.70;;;;;;6215080;23;20016;-90
2023/06/04 08:08:36;;;;;;;8.25;2.25;;;15.10;65.90;;;;;;6188576;23;20028;-89
2023/06/04 08:11:17;;;;;;;5.10;1.90;;;15.00;66.00;;;;;;6191792;23;20013;-90
2023/06/04 08:17:34;;;;;;;5.38;2.20;;;15.00;64.70;;;;;;6140450;23;20085;-88
2023/06/04 08:27:44;;;;;;;6.10;1.73;;;15.20;65.20;;;;;;6147589;23;20024;-89
2023/06/04 08:30:10;;;;;;;3.80;2.00;;;15.20;65.40;;;;;;6129552;23;20017;-88
2023/06/04 08:32:36;;;;;;;9.65;2.20;;;15.20;64.90;;;;;;6116063;23;20476;-88
2023/06/04 08:35:02;;;;;;;5.63;2.20;;;15.20;65.30;;;;;;6181642;23;20013;-88
2023/06/04 08:37:30;;;;;;;6.47;2.10;;;15.30;64.90;;;;;;6189466;23;20440;-86
2023/06/04 08:39:59;;;;;;;6.10;1.50;;;15.30;65.00;;;;;;6190245;23;20317;-89
2023/06/04 08:42:33;;;;;;;5.07;2.17;;;15.30;65.00;;;;;;6177183;22;20375;-89
2023/06/04 08:45:00;;;;;;;6.78;2.22;;;15.40;64.80;;;;;;6190244;23;20028;-88
2023/06/04 08:47:28;;;;;;;6.07;2.10;;;15.40;64.70;;;;;;6186628;23;20020;-87
2023/06/04 08:50:00;;;;;;;5.75;1.73;;;15.40;64.10;;;;;;6189424;23;20016;-89
2023/06/04 08:52:26;;;;;;;7.00;1.80;;;15.40;63.80;;;;;;6187831;22;20023;-88
2023/06/04 08:54:53;;;;;;;5.05;1.70;;;15.50;63.90;;;;;;6189414;23;20355;-88
2023/06/04 08:57:20;;;;;;;3.42;1.40;;;15.50;63.70;;;;;;6175153;22;20339;-88
2023/06/04 08:59:47;;;;;;;4.95;1.63;;;15.50;63.70;;;;;;6158975;23;20088;-90
2023/06/04 09:02:20;;;;;;;5.68;1.77;;;15.60;64.00;;;;;;6157112;23;20023;-88
2023/06/04 09:04:53;;;;;;;4.10;1.80;;;15.60;63.60;;;;;;6161492;23;20075;-89
2023/06/04 09:07:20;;;;;;;3.20;1.30;;;15.60;63.60;;;;;;6182197;23;20021;-87
2023/06/04 09:09:52;;;;;;;3.95;1.63;;;15.60;63.50;;;;;;6160816;23;20025;-89
2023/06/04 09:12:56;;;;;;;4.15;1.52;;;15.60;63.30;;;;;;6144806;23;20013;-91
2023/06/04 09:19:07;;;;;;;2.78;1.27;;;15.60;62.50;;;;;;6034964;23;20023;-92
2023/06/04 09:22:09;;;;;;;4.95;1.40;;;15.70;62.70;;;;;;5990164;23;20030;-89
2023/06/04 09:24:42;;;;;;;3.65;1.17;;;15.80;62.10;;;;;;5961324;23;20033;-89
2023/06/04 09:27:19;;;;;;;3.97;1.40;;;15.80;63.00;;;;;;5985592;23;20037;-88
2023/06/04 09:30:08;;;;;;;;;;;;;;;;;;;;;
2023/06/04 09:32:55;;;;;;;4.68;2.03;;;16.00;62.60;;;;;;6029835;23;20023;-89
2023/06/04 09:35:23;;;;;;;4.35;1.55;;;16.00;62.20;;;;;;5969290;23;20144;-89
2023/06/04 09:37:56;;;;;;;3.60;1.50;;;15.80;62.70;;;;;;5990665;23;20056;-89
2023/06/04 09:40:34;;;;;;;5.90;1.83;;;15.90;62.90;;;;;;6037902;23;20022;-91
2023/06/04 09:43:00;;;;;;;3.97;1.60;;;16.00;63.20;;;;;;6046550;23;20454;-87
2023/06/04 09:45:35;;;;;;;8.02;1.88;;;16.10;63.20;;;;;;6059876;23;20149;-89
2023/06/04 09:48:12;;;;;;;8.27;1.65;;;16.10;62.90;;;;;;6160765;23;20017;-88
2023/06/04 09:50:41;;;;;;;4.80;1.42;;;16.10;63.00;;;;;;6161192;23;20013;-89
2023/06/04 09:53:22;;;;;;;4.80;1.50;;;16.10;63.00;;;;;;6135607;23;20072;-90
2023/06/04 09:56:03;;;;;;;5.55;1.77;;;16.10;62.30;;;;;;6161327;23;20021;-87
2023/06/04 09:59:00;;;;;;;2.95;1.83;;;16.20;62.30;;;;;;6159256;23;20364;-93
2023/06/04 10:01:30;;;;;;;6.43;1.52;;;16.20;62.60;;;;;;6161510;23;20025;-89
2023/06/04 10:04:03;;;;;;;5.10;1.80;;;16.20;62.70;;;;;;6135888;23;20020;-88
2023/06/04 10:06:34;;;;;;;4.65;1.67;;;16.10;62.10;;;;;;6161258;23;20012;-89
2023/06/04 10:09:08;;;;;;;4.78;1.45;;;16.10;62.50;;;;;;6159752;23;20017;-88
2023/06/04 10:11:56;;;;;;;3.53;1.48;;;16.10;62.40;;;;;;6137301;23;20017;-88
2023/06/04 10:14:34;;;;;;;7.32;1.35;;;16.10;62.10;;;;;;6144863;23;20020;-90
2023/06/04 10:17:38;;;;;;;3.83;1.40;;;16.10;62.40;;;;;;6183237;23;20017;-90
2023/06/04 10:20:08;;;;;;;6.07;1.35;;;16.00;62.20;;;;;;6161377;23;20013;-89
2023/06/04 10:22:44;;;;;;;10.13;1.90;;;16.00;62.90;;;;;;6159251;23;20522;-89
2023/06/04 10:25:10;;;;;;;8.32;1.92;;;16.10;62.90;;;;;;6162150;23;20088;-88
2023/06/04 10:27:40;;;;;;;4.60;1.35;;;16.10;63.00;;;;;;6133862;23;20060;-89
2023/06/04 10:30:06;;;;;;;5.90;1.58;;;16.20;63.10;;;;;;6161959;23;20017;-88
2023/06/04 10:32:33;;;;;;;5.35;1.52;;;16.20;63.10;;;;;;6150020;23;20016;-88
2023/06/04 10:35:06;;;;;;;4.75;1.90;;;16.30;63.00;;;;;;6162307;23;20107;-89
2023/06/04 10:37:32;;;;;;;3.97;1.83;;;16.20;63.00;;;;;;6160394;23;20017;-87
2023/06/04 10:40:11;;;;;;;5.53;1.50;;;16.20;63.00;;;;;;6136770;23;20094;-88
2023/06/04 10:42:42;;;;;;;2.17;1.20;;;16.30;62.70;;;;;;6136193;23;20024;-88
2023/06/04 10:45:14;;;;;;;4.60;1.70;;;16.30;62.30;;;;;;6160599;23;20037;-90
2023/06/04 10:47:43;;;;;;;6.88;1.85;;;16.20;62.50;;;;;;6158451;23;20024;-86
2023/06/04 10:50:23;;;;;;;6.38;1.90;;;16.20;63.10;;;;;;6137303;23;20056;-88
2023/06/04 10:52:53;;;;;;;4.05;2.08;;;16.40;63.20;;;;;;6158944;23;20043;-87
2023/06/04 10:55:21;;;;;;;14.85;2.10;;;16.40;62.70;;;;;;6161609;23;20021;-88
2023/06/04 10:57:58;;;;;;;5.10;2.08;;;16.40;62.70;;;;;;6157593;23;20025;-88
2023/06/04 11:00:41;;;;;;;6.15;2.05;;;16.40;62.80;;;;;;6159951;23;20013;-90
2023/06/04 11:03:11;;;;;;;4.93;2.10;;;16.40;62.30;;;;;;6159279;23;20023;-89
2023/06/04 11:05:45;;;;;;;2.90;2.00;;;16.40;62.90;;;;;;6161984;23;20028;-89
2023/06/04 11:08:13;;;;;;;7.85;2.47;;;16.30;63.20;;;;;;6158027;23;20021;-87
2023/06/04 11:10:42;;;;;;;6.38;2.20;;;16.40;63.50;;;;;;6160455;23;20013;-88
2023/06/04 11:13:08;;;;;;;8.60;2.20;;;16.40;63.30;;;;;;6159475;23;20017;-88
2023/06/04 11:15:43;;;;;;;4.68;2.42;;;16.50;63.20;;;;;;6136285;23;20507;-91
2023/06/04 11:18:18;;;;;;;8.68;2.17;;;16.50;63.20;;;;;;6145774;23;20021;-88
2023/06/04 11:20:45;;;;;;;4.38;1.67;;;16.50;62.70;;;;;;6136802;23;20481;-88
2023/06/04 11:23:15;;;;;;;3.80;1.80;;;16.50;62.70;;;;;;6183457;23;20017;-89
2023/06/04 11:25:45;;;;;;;5.95;2.40;;;16.50;62.60;;;;;;6161391;23;20021;-88
2023/06/04 11:28:18;;;;;;;5.22;2.00;;;16.50;62.70;;;;;;6133505;23;20021;-90
2023/06/04 11:39:06;;;;;;;5.10;2.13;;;16.60;62.00;;;;;;6186494;23;20012;-90
2023/06/04 11:41:35;;;;;;;2.28;1.42;;;16.50;62.30;;;;;;6019499;23;20015;-88
2023/06/04 11:44:05;;;;;;;4.35;1.58;;;16.50;62.70;;;;;;5999004;23;20030;-85
2023/06/04 11:46:35;;;;;;;5.35;2.00;;;16.50;62.60;;;;;;6108917;23;20032;-86
2023/06/04 11:49:02;;;;;;;6.85;1.77;;;16.60;62.80;;;;;;6155672;23;20403;-88
2023/06/04 11:51:29;;;;;;;4.35;1.67;;;16.50;62.50;;;;;;6184244;23;20041;-84
2023/06/04 11:53:55;;;;;;;4.22;1.40;;;16.60;62.60;;;;;;6183490;23;20032;-84
2023/06/04 11:56:23;;;;;;;5.43;1.67;;;16.60;62.60;;;;;;6159364;23;20100;-85
2023/06/04 11:58:50;;;;;;;3.70;1.90;;;16.60;62.50;;;;;;6157811;23;20091;-84
2023/06/04 12:01:16;;;;;;;3.97;1.42;;;16.60;62.40;;;;;;6137747;23;20025;-84
2023/06/04 12:03:43;;;;;;;3.17;1.48;;;16.50;62.40;;;;;;6185561;23;20093;-83
2023/06/04 12:06:16;;;;;;;5.43;1.50;;;16.50;62.40;;;;;;6184321;23;20017;-83
2023/06/04 12:08:58;;;;;;;4.55;1.55;;;16.50;62.40;;;;;;6158085;23;20075;-85
2023/06/04 12:11:31;;;;;;;5.60;1.40;;;16.50;62.30;;;;;;6184647;23;20021;-86
2023/06/04 12:13:59;;;;;;;5.38;1.52;;;16.50;62.60;;;;;;6159309;23;20471;-83
2023/06/04 12:16:25;;;;;;;4.53;1.75;;;16.50;62.20;;;;;;6184258;23;20017;-85
2023/06/04 12:18:51;;;;;;;4.38;1.60;;;16.40;62.60;;;;;;6182844;23;20017;-85
2023/06/04 12:21:27;;;;;;;5.07;1.40;;;16.50;62.50;;;;;;6185073;23;20459;-87
2023/06/04 12:24:14;;;;;;;4.88;1.65;;;16.40;62.60;;;;;;6158792;23;20487;-83
2023/06/04 12:26:43;;;;;;;5.68;1.42;;;16.40;63.40;;;;;;6159236;23;20080;-85
2023/06/04 12:29:19;;;;;;;5.05;1.67;;;16.40;63.10;;;;;;6182787;23;20068;-86
2023/06/04 12:31:46;;;;;;;4.93;1.50;;;16.50;63.00;;;;;;6136840;23;20519;-84
2023/06/04 12:34:17;;;;;;;3.65;1.10;;;16.60;62.90;;;;;;6159157;23;20025;-86
2023/06/04 12:36:43;;;;;;;6.05;1.48;;;16.60;62.50;;;;;;6159570;23;20013;-85
2023/06/04 12:39:09;;;;;;;4.07;1.42;;;16.60;63.00;;;;;;6160239;23;20432;-85
2023/06/04 12:41:35;;;;;;;5.20;1.50;;;16.70;63.20;;;;;;6135340;23;20111;-85
2023/06/04 12:44:01;;;;;;;6.63;1.38;;;16.70;63.20;;;;;;6183398;23;20340;-86
2023/06/04 12:46:28;;;;;;;5.40;1.50;;;16.70;63.20;;;;;;6184749;23;20088;-88
2023/06/04 12:48:54;;;;;;;6.00;1.50;;;16.70;63.20;;;;;;6134067;23;20073;-84
2023/06/04 12:51:20;;;;;;;4.68;1.55;;;16.70;63.10;;;;;;6184715;23;20389;-86
2023/06/04 12:53:47;;;;;;;3.13;1.50;;;16.70;63.20;;;;;;6183397;23;20017;-87
2023/06/04 12:56:13;;;;;;;6.35;2.00;;;16.60;63.00;;;;;;6184556;23;20020;-87
2023/06/04 12:58:40;;;;;;;4.82;1.63;;;16.60;63.20;;;;;;6157459;23;20143;-84
2023/06/04 13:01:06;;;;;;;3.45;1.50;;;16.60;63.20;;;;;;6160690;23;20036;-85
2023/06/04 13:03:32;;;;;;;4.82;1.63;;;16.70;63.20;;;;;;6158192;23;20017;-84
2023/06/04 13:05:59;;;;;;;4.97;1.80;;;16.70;63.10;;;;;;6185222;23;20072;-85
2023/06/04 13:08:25;;;;;;;6.47;1.70;;;16.60;63.00;;;;;;6158887;23;20021;-87
2023/06/04 13:10:51;;;;;;;5.55;1.80;;;16.70;63.40;;;;;;6187441;23;20013;-86
2023/06/04 13:13:18;;;;;;;3.63;1.40;;;16.70;63.40;;;;;;6161543;23;20344;-86
2023/06/04 13:15:47;;;;;;;4.50;1.65;;;16.60;63.10;;;;;;6139074;23;20102;-86
2023/06/04 13:18:13;;;;;;;5.90;1.92;;;16.50;63.10;;;;;;6135393;23;20029;-85